createdAt,value
2018-01-25T00:01:11.214Z,100660.72
2018-01-25T00:06:40.049Z,100661.67
2018-01-25T00:09:11.031Z,100667.75
2018-01-25T00:11:43.198Z,100662.55
2018-01-25T00:14:19.634Z,100665.34
2018-01-25T00:16:51.050Z,100673.55
2018-01-25T00:19:21.627Z,100666.92
2018-01-25T00:21:52.801Z,100666.12
2018-01-25T00:24:23.952Z,100676.76
2018-01-25T00:26:56.707Z,100683.72
2018-01-25T00:29:27.417Z,100672.25
2018-01-25T00:31:58.030Z,100669.09
2018-01-25T00:34:29.190Z,100683.63
2018-01-25T00:37:01.863Z,100680.09
2018-01-25T00:39:33.933Z,100685.69
2018-01-25T00:42:04.496Z,100725.63
2018-01-25T00:44:38.127Z,100749.70
2018-01-25T00:47:08.767Z,100752.72
2018-01-25T00:49:39.863Z,100761.72
2018-01-25T00:52:11.491Z,100757.15
2018-01-25T00:54:42.597Z,100740.53
2018-01-25T00:57:13.938Z,100754.01
2018-01-25T00:59:45.733Z,100759.53
2018-01-25T01:02:17.441Z,100759.54
2018-01-25T01:04:55.642Z,100747.83
2018-01-25T01:07:27.618Z,100748.47
2018-01-25T01:09:58.721Z,100753.52
2018-01-25T01:12:31.429Z,100737.56
2018-01-25T01:15:05.031Z,100753.48
2018-01-25T01:17:35.917Z,100761.14
2018-01-25T01:20:05.946Z,100760.02
2018-01-25T01:22:37.732Z,100764.88
2018-01-25T01:25:08.213Z,100766.48
2018-01-25T01:27:39.164Z,100767.27
2018-01-25T01:30:10.242Z,100764.37
2018-01-25T01:32:43.578Z,100775.25
2018-01-25T01:35:14.302Z,100771.26
2018-01-25T01:37:45.612Z,100781.34
2018-01-25T01:40:22.134Z,100783.16
2018-01-25T01:42:53.315Z,100789.43
2018-01-25T01:45:24.941Z,100775.64
2018-01-25T01:47:55.708Z,100784.00
2018-01-25T01:50:26.913Z,100793.20
2018-01-25T01:52:58.673Z,100797.81
2018-01-25T01:55:29.962Z,100799.13
2018-01-25T01:58:00.455Z,100796.30
2018-01-25T02:00:31.295Z,100801.98
2018-01-25T02:03:02.251Z,100802.72
2018-01-25T02:05:33.024Z,100787.47
2018-01-25T02:08:03.715Z,100807.00
2018-01-25T02:10:34.768Z,100808.71
2018-01-25T02:13:05.747Z,100805.38
2018-01-25T02:21:08.768Z,100814.59
2018-01-25T02:23:39.457Z,100809.11
2018-01-25T02:26:09.849Z,100812.63
2018-01-25T02:28:40.851Z,100819.49
2018-01-25T02:31:12.292Z,100816.40
2018-01-25T02:33:42.535Z,100826.76
2018-01-25T02:36:13.547Z,100817.23
2018-01-25T02:38:45.481Z,100818.93
2018-01-25T02:41:16.294Z,100830.33
2018-01-25T02:43:48.141Z,100837.13
2018-01-25T02:49:22.847Z,100835.05
2018-01-25T02:51:53.780Z,100834.03
2018-01-25T02:54:24.007Z,100839.91
2018-01-25T02:57:04.429Z,100828.52
2018-01-25T02:59:35.156Z,100836.17
2018-01-25T03:02:05.440Z,100835.33
2018-01-25T03:04:36.140Z,100827.58
2018-01-25T03:07:06.368Z,100824.51
2018-01-25T03:09:37.651Z,100825.45
2018-01-25T03:12:09.675Z,100833.02
2018-01-25T03:14:40.582Z,100827.62
2018-01-25T03:17:11.603Z,100835.45
2018-01-25T03:19:43.819Z,100835.83
2018-01-25T03:22:16.276Z,100828.03
2018-01-25T03:24:48.148Z,100839.52
2018-01-25T03:40:13.048Z,100848.39
2018-01-25T03:42:44.195Z,100847.97
2018-01-25T03:45:19.911Z,100848.53
2018-01-25T03:47:50.875Z,100860.40
2018-01-25T03:50:32.368Z,100853.44
2018-01-25T03:53:02.642Z,100849.97
2018-01-25T03:55:34.346Z,100859.73
2018-01-25T03:58:04.577Z,100855.80
2018-01-25T04:00:35.810Z,100866.42
2018-01-25T04:03:06.481Z,100870.91
2018-01-25T04:05:36.702Z,100873.41
2018-01-25T04:08:07.021Z,100869.44
2018-01-25T04:10:37.666Z,100869.06
2018-01-25T04:13:08.597Z,100874.84
2018-01-25T04:15:39.907Z,100876.61
2018-01-25T04:18:10.209Z,100886.77
2018-01-25T04:20:41.842Z,100881.48
2018-01-25T04:23:12.622Z,100884.63
2018-01-25T04:25:42.817Z,100885.65
2018-01-25T04:28:13.075Z,100890.27
2018-01-25T04:30:44.506Z,100888.14
2018-01-25T04:33:14.822Z,100888.66
2018-01-25T04:35:45.023Z,100881.14
2018-01-25T04:38:15.568Z,100887.72
2018-01-25T04:40:46.212Z,100891.13
2018-01-25T04:43:17.087Z,100891.72
2018-01-25T04:45:48.511Z,100889.80
2018-01-25T04:48:19.264Z,100882.27
2018-01-25T04:50:50.836Z,100876.66
2018-01-25T04:53:21.110Z,100878.15
2018-01-25T04:55:51.862Z,100878.05
2018-01-25T05:01:01.156Z,100889.25
2018-01-25T05:03:31.844Z,100876.89
2018-01-25T05:06:03.097Z,100886.08
2018-01-25T05:08:33.396Z,100875.56
2018-01-25T05:11:03.588Z,100873.91
2018-01-25T05:13:34.185Z,100878.09
2018-01-25T05:16:05.458Z,100873.95
2018-01-25T05:18:36.562Z,100870.62
2018-01-25T05:21:06.888Z,100862.42
2018-01-25T05:23:38.030Z,100857.52
2018-01-25T05:26:09.161Z,100853.20
2018-01-25T05:28:40.420Z,100851.58
2018-01-25T05:31:11.308Z,100831.78
2018-01-25T05:33:42.010Z,100842.34
2018-01-25T05:36:13.439Z,100822.74
2018-01-25T05:38:44.349Z,100825.54
2018-01-25T05:41:14.783Z,100843.80
2018-01-25T05:43:45.971Z,100857.61
2018-01-25T05:46:16.941Z,100847.02
2018-01-25T05:48:47.613Z,100845.71
2018-01-25T05:51:18.433Z,100854.39
2018-01-25T05:53:49.119Z,100845.77
2018-01-25T05:56:19.660Z,100843.75
2018-01-25T05:58:49.828Z,100850.75
2018-01-25T06:01:20.690Z,100839.42
2018-01-25T06:03:51.130Z,100865.58
2018-01-25T06:06:21.678Z,100887.52
2018-01-25T06:08:52.659Z,100885.51
2018-01-25T06:11:23.853Z,100880.34
2018-01-25T06:14:05.291Z,100879.53
2018-01-25T06:16:45.447Z,100872.11
2018-01-25T06:19:16.060Z,100887.10
2018-01-25T06:21:46.238Z,100881.59
2018-01-25T06:24:16.660Z,100885.35
2018-01-25T06:26:47.444Z,100880.49
2018-01-25T06:29:19.574Z,100888.37
2018-01-25T06:31:50.257Z,100893.02
2018-01-25T06:34:21.209Z,100895.63
2018-01-25T06:36:51.939Z,100887.78
2018-01-25T06:39:23.251Z,100871.22
2018-01-25T06:41:54.164Z,100883.12
2018-01-25T06:44:24.898Z,100883.83
2018-01-25T06:46:59.899Z,100893.04
2018-01-25T06:49:30.542Z,100895.33
2018-01-25T06:52:00.673Z,100886.38
2018-01-25T06:54:31.731Z,100883.50
2018-01-25T06:57:03.825Z,100896.46
2018-01-25T07:02:45.149Z,100873.50
2018-01-25T07:08:23.429Z,100883.52
2018-01-25T07:10:57.165Z,100886.85
2018-01-25T07:13:32.400Z,100885.34
2018-01-25T07:16:03.645Z,100886.21
2018-01-25T07:18:35.604Z,100884.95
2018-01-25T07:21:06.653Z,100883.73
2018-01-25T07:23:37.330Z,100889.39
2018-01-25T07:26:27.510Z,100895.22
2018-01-25T07:28:59.439Z,100904.10
2018-01-25T07:31:31.623Z,100915.61
2018-01-25T07:34:19.594Z,100915.37
2018-01-25T07:36:52.774Z,100908.41
2018-01-25T07:39:23.825Z,100908.08
2018-01-25T07:41:56.929Z,100902.42
2018-01-25T07:44:28.343Z,100891.48
2018-01-25T07:47:00.970Z,100886.31
2018-01-25T07:49:31.993Z,100884.63
2018-01-25T07:52:02.693Z,100875.75
2018-01-25T07:54:35.146Z,100825.47
2018-01-25T07:57:07.211Z,100879.98
2018-01-25T07:59:39.050Z,100881.50
2018-01-25T08:02:10.461Z,100878.77
2018-01-25T08:04:41.986Z,100863.15
2018-01-25T08:07:14.501Z,100885.09
2018-01-25T08:09:45.203Z,100897.55
2018-01-25T08:12:15.949Z,100900.09
2018-01-25T08:14:49.152Z,100899.42
2018-01-25T08:17:20.878Z,100901.05
2018-01-25T08:19:52.617Z,100910.53
2018-01-25T08:22:23.412Z,100916.88
2018-01-25T08:24:54.152Z,100929.02
2018-01-25T08:27:26.501Z,100929.50
2018-01-25T08:30:04.868Z,100930.55
2018-01-25T08:32:35.828Z,100919.00
2018-01-25T08:35:06.324Z,100920.02
2018-01-25T08:37:38.012Z,100920.09
2018-01-25T08:40:13.725Z,100918.69
2018-01-25T08:42:44.694Z,100918.73
2018-01-25T08:45:17.153Z,100911.10
2018-01-25T08:48:00.431Z,100919.11
2018-01-25T08:50:44.003Z,100908.06
2018-01-25T08:53:17.858Z,100873.98
2018-01-25T08:55:49.391Z,100899.03
2018-01-25T08:58:20.226Z,100904.03
2018-01-25T09:00:50.784Z,100860.04
2018-01-25T09:03:21.121Z,100907.30
2018-01-25T09:05:52.389Z,100895.38
2018-01-25T09:08:22.970Z,100893.95
2018-01-25T09:13:44.160Z,100902.55
2018-01-25T09:16:17.921Z,100908.25
2018-01-25T09:18:53.660Z,100908.20
2018-01-25T09:21:37.299Z,100918.84
2018-01-25T09:24:11.982Z,100911.48
2018-01-25T09:26:42.808Z,100911.10
2018-01-25T09:29:13.599Z,100930.80
2018-01-25T09:31:45.115Z,100922.59
2018-01-25T09:34:15.978Z,100914.58
2018-01-25T09:36:48.091Z,100919.85
2018-01-25T09:39:18.158Z,100923.17
2018-01-25T09:42:01.828Z,100940.24
2018-01-25T09:44:33.341Z,100934.48
2018-01-25T09:47:05.060Z,100939.30
2018-01-25T09:49:35.419Z,100933.92
2018-01-25T09:52:06.247Z,100947.80
2018-01-25T09:54:37.816Z,100946.89
2018-01-25T09:57:07.805Z,100933.70
2018-01-25T09:59:38.905Z,100945.70
2018-01-25T10:02:12.377Z,100926.80
2018-01-25T10:04:43.540Z,100937.21
2018-01-25T10:07:26.933Z,100938.78
2018-01-25T10:09:59.375Z,100932.76
2018-01-25T10:12:34.166Z,100918.81
2018-01-25T10:17:47.396Z,100944.95
2018-01-25T10:20:17.585Z,100939.30
2018-01-25T10:22:48.845Z,100932.42
2018-01-25T10:25:19.227Z,100936.03
2018-01-25T10:27:49.458Z,100936.98
2018-01-25T10:30:29.678Z,100921.72
2018-01-25T10:33:00.086Z,100924.02
2018-01-25T10:35:31.888Z,100923.58
2018-01-25T10:38:03.540Z,100918.97
2018-01-25T10:40:33.952Z,100925.13
2018-01-25T10:43:11.344Z,100917.88
2018-01-25T10:45:43.244Z,100904.47
2018-01-25T10:48:13.527Z,100903.45
2018-01-25T10:50:43.951Z,100899.31
2018-01-25T10:53:14.623Z,100896.14
2018-01-25T10:55:44.945Z,100887.36
2018-01-25T10:58:15.347Z,100890.83
2018-01-25T11:00:50.022Z,100882.09
2018-01-25T11:03:21.117Z,100872.96
2018-01-25T11:05:52.269Z,100877.42
2018-01-25T11:08:23.872Z,100873.17
2018-01-25T11:10:54.717Z,100871.41
2018-01-25T11:13:41.876Z,100860.13
2018-01-25T11:16:16.219Z,100864.69
2018-01-25T11:18:49.198Z,100860.32
2018-01-25T11:21:21.065Z,100875.59
2018-01-25T11:23:52.095Z,100870.69
2018-01-25T11:26:23.298Z,100868.31
2018-01-25T11:28:54.024Z,100864.28
2018-01-25T11:31:26.240Z,100848.02
2018-01-25T11:33:59.667Z,100853.58
2018-01-25T11:36:30.303Z,100845.15
2018-01-25T11:39:03.117Z,100826.39
2018-01-25T11:41:33.784Z,100831.80
2018-01-25T11:44:05.419Z,100836.56
2018-01-25T11:46:37.121Z,100843.95
2018-01-25T11:49:08.437Z,100838.66
2018-01-25T11:51:39.777Z,100847.31
2018-01-25T11:54:10.237Z,100843.22
2018-01-25T11:56:42.106Z,100846.84
2018-01-25T11:59:13.215Z,100833.91
2018-01-25T12:01:44.666Z,100846.73
2018-01-25T12:04:16.291Z,100827.30
2018-01-25T12:06:46.852Z,100842.14
2018-01-25T12:09:17.638Z,100843.88
2018-01-25T12:11:49.018Z,100840.34
2018-01-25T12:14:22.759Z,100841.20
2018-01-25T12:16:53.837Z,100830.43
2018-01-25T12:19:30.238Z,100834.27
2018-01-25T12:22:08.250Z,100835.88
2018-01-25T12:24:39.411Z,100833.23
2018-01-25T12:27:12.156Z,100815.94
2018-01-25T12:29:45.132Z,100830.77
2018-01-25T12:32:16.253Z,100831.78
2018-01-25T12:34:56.995Z,100797.16
2018-01-25T12:37:32.321Z,100824.77
2018-01-25T12:40:03.429Z,100805.98
2018-01-25T12:42:34.056Z,100808.33
2018-01-25T12:45:07.998Z,100801.47
2018-01-25T12:47:44.490Z,100802.63
2018-01-25T12:50:16.070Z,100789.59
2018-01-25T12:52:47.753Z,100787.89
2018-01-25T12:55:18.403Z,100782.39
2018-01-25T12:57:48.926Z,100776.44
2018-01-25T13:00:23.629Z,100777.28
2018-01-25T13:02:54.624Z,100763.83
2018-01-25T13:05:25.990Z,100760.51
2018-01-25T13:07:56.474Z,100753.56
2018-01-25T13:10:29.691Z,100747.25
2018-01-25T13:13:01.768Z,100749.62
2018-01-25T13:15:32.894Z,100751.02
2018-01-25T13:18:03.760Z,100744.34
2018-01-25T13:20:34.352Z,100740.09
2018-01-25T13:23:04.739Z,100743.20
2018-01-25T13:25:35.748Z,100741.56
2018-01-25T13:28:10.632Z,100741.75
2018-01-25T13:30:43.137Z,100740.28
2018-01-25T13:33:17.872Z,100750.62
2018-01-25T13:35:49.799Z,100751.25
2018-01-25T13:38:21.331Z,100755.05
2018-01-25T13:40:52.369Z,100764.66
2018-01-25T13:43:29.750Z,100755.20
2018-01-25T13:46:03.574Z,100756.78
2018-01-25T13:48:34.487Z,100745.84
2018-01-25T13:51:06.230Z,100751.64
2018-01-25T13:53:37.864Z,100760.13
2018-01-25T13:56:09.784Z,100752.48
2018-01-25T13:58:40.329Z,100745.91
2018-01-25T14:01:13.127Z,100747.80
2018-01-25T14:03:44.848Z,100758.25
2018-01-25T14:06:16.996Z,100755.44
2018-01-25T14:08:47.692Z,100753.88
2018-01-25T14:11:19.150Z,100746.69
2018-01-25T14:13:50.447Z,100730.10
2018-01-25T14:16:24.097Z,100738.02
2018-01-25T14:18:55.608Z,100736.95
2018-01-25T14:21:26.377Z,100742.12
2018-01-25T14:23:57.397Z,100746.02
2018-01-25T14:26:29.251Z,100752.89
2018-01-25T14:29:05.233Z,100756.06
2018-01-25T14:31:36.153Z,100753.17
2018-01-25T14:34:06.526Z,100765.23
2018-01-25T14:36:37.451Z,100762.05
2018-01-25T14:39:08.694Z,100761.30
2018-01-25T14:41:39.366Z,100751.72
2018-01-25T14:44:10.359Z,100756.44
2018-01-25T14:46:41.888Z,100758.22
2018-01-25T14:49:12.618Z,100751.33
2018-01-25T14:51:43.018Z,100753.33
2018-01-25T14:54:13.583Z,100751.01
2018-01-25T14:56:44.510Z,100743.02
2018-01-25T14:59:15.854Z,100748.62
2018-01-25T15:01:46.812Z,100746.17
2018-01-25T15:07:06.823Z,100750.56
2018-01-25T15:09:37.464Z,100747.98
2018-01-25T15:12:09.750Z,100746.29
2018-01-25T15:14:40.528Z,100754.95
2018-01-25T15:17:11.688Z,100751.84
2018-01-25T15:19:42.393Z,100747.83
2018-01-25T15:22:20.386Z,100756.40
2018-01-25T15:24:51.101Z,100753.59
2018-01-25T15:27:25.919Z,100763.27
2018-01-25T15:29:57.436Z,100771.70
2018-01-25T15:32:30.688Z,100772.10
2018-01-25T15:35:04.515Z,100779.11
2018-01-25T15:37:35.656Z,100774.13
2018-01-25T15:40:07.478Z,100773.22
2018-01-25T15:42:38.240Z,100767.20
2018-01-25T15:45:09.195Z,100767.70
2018-01-25T15:47:40.936Z,100777.15
2018-01-25T15:50:12.608Z,100772.19
2018-01-25T15:52:44.998Z,100773.13
2018-01-25T15:55:16.126Z,100767.16
2018-01-25T15:57:48.518Z,100781.41
2018-01-25T16:00:20.397Z,100780.72
2018-01-25T16:02:59.117Z,100778.63
2018-01-25T16:05:30.072Z,100782.41
2018-01-25T16:08:07.969Z,100771.41
2018-01-25T16:10:41.112Z,100774.91
2018-01-25T16:13:11.794Z,100766.81
2018-01-25T16:15:42.639Z,100762.56
2018-01-25T16:18:21.396Z,100763.60
2018-01-25T16:20:52.195Z,100756.63
2018-01-25T16:23:22.829Z,100755.67
2018-01-25T16:25:53.709Z,100760.84
2018-01-25T16:31:09.586Z,100768.80
2018-01-25T16:33:43.211Z,100768.75
2018-01-25T16:36:15.487Z,100761.23
2018-01-25T16:38:46.149Z,100773.44
2018-01-25T16:41:17.283Z,100773.38
2018-01-25T16:43:47.598Z,100777.69
2018-01-25T16:46:18.495Z,100774.38
2018-01-25T16:48:49.079Z,100773.05
2018-01-25T16:51:20.016Z,100772.86
2018-01-25T16:53:54.017Z,100762.48
2018-01-25T16:56:25.220Z,100769.79
2018-01-25T16:58:55.922Z,100758.84
2018-01-25T17:01:27.827Z,100763.96
2018-01-25T17:03:58.116Z,100761.43
2018-01-25T17:06:29.586Z,100765.72
2018-01-25T17:09:01.260Z,100767.95
2018-01-25T17:11:32.847Z,100769.22
2018-01-25T17:14:05.246Z,100776.39
2018-01-25T17:16:37.397Z,100781.23
2018-01-25T17:19:07.866Z,100781.50
2018-01-25T17:21:43.714Z,100790.05
2018-01-25T17:24:13.929Z,100787.95
2018-01-25T17:26:44.196Z,100786.72
2018-01-25T17:29:14.574Z,100785.33
2018-01-25T17:31:44.990Z,100791.39
2018-01-25T17:34:15.843Z,100802.16
2018-01-25T17:36:55.228Z,100799.49
2018-01-25T17:39:26.611Z,100805.63
2018-01-25T17:41:57.439Z,100814.92
2018-01-25T17:44:28.293Z,100814.44
2018-01-25T17:46:59.763Z,100811.06
2018-01-25T17:49:30.167Z,100805.98
2018-01-25T17:52:03.726Z,100808.30
2018-01-25T17:54:34.537Z,100787.72
2018-01-25T17:57:05.528Z,100814.97
2018-01-25T17:59:37.527Z,100819.61
2018-01-25T18:02:12.551Z,100806.69
2018-01-25T18:04:45.746Z,100812.54
2018-01-25T18:07:41.652Z,100823.23
2018-01-25T18:10:11.976Z,100828.37
2018-01-25T18:12:44.098Z,100828.48
2018-01-25T18:15:18.122Z,100828.16
2018-01-25T18:17:48.957Z,100821.44
2018-01-25T18:20:20.754Z,100819.96
2018-01-25T18:22:52.116Z,100824.39
2018-01-25T18:25:23.836Z,100820.69
2018-01-25T18:27:55.578Z,100822.31
2018-01-25T18:30:29.966Z,100828.12
2018-01-25T18:33:02.529Z,100829.97
2018-01-25T18:35:34.077Z,100833.23
2018-01-25T18:38:05.688Z,100837.79
2018-01-25T18:40:39.091Z,100834.70
2018-01-25T18:43:10.578Z,100846.95
2018-01-25T18:45:44.429Z,100847.31
2018-01-25T18:48:15.134Z,100845.46
2018-01-25T18:50:46.410Z,100845.73
2018-01-25T18:53:16.992Z,100843.68
2018-01-25T18:55:48.706Z,100852.39
2018-01-25T18:58:19.134Z,100851.70
2018-01-25T19:00:51.307Z,100847.69
2018-01-25T19:03:22.670Z,100849.48
2018-01-25T19:05:54.154Z,100853.23
2018-01-25T19:08:40.908Z,100849.95
2018-01-25T19:11:14.388Z,100856.69
2018-01-25T19:13:45.185Z,100850.16
2018-01-25T19:16:15.829Z,100838.23
2018-01-25T19:18:46.599Z,100854.52
2018-01-25T19:21:18.557Z,100849.27
2018-01-25T19:23:49.119Z,100846.06
2018-01-25T19:26:20.624Z,100845.98
2018-01-25T19:28:51.448Z,100855.89
2018-01-25T19:31:22.110Z,100822.64
2018-01-25T19:33:53.240Z,100861.46
2018-01-25T19:36:24.901Z,100866.41
2018-01-25T19:39:03.009Z,100859.25
2018-01-25T19:41:34.705Z,100856.29
2018-01-25T19:44:07.425Z,100852.47
2018-01-25T19:46:52.632Z,100847.98
2018-01-25T19:52:28.599Z,100825.31
2018-01-25T19:55:04.647Z,100832.48
2018-01-25T19:57:36.750Z,100834.31
2018-01-25T20:00:17.566Z,100834.91
2018-01-25T20:02:48.532Z,100842.58
2018-01-25T20:05:20.601Z,100840.68
2018-01-25T20:08:23.019Z,100771.09
2018-01-25T20:10:59.414Z,100819.80
2018-01-25T20:13:32.061Z,100846.05
2018-01-25T20:16:09.367Z,100845.34
2018-01-25T20:18:40.626Z,100844.06
2018-01-25T20:21:17.265Z,100841.33
2018-01-25T20:23:50.308Z,100841.01
2018-01-25T20:26:22.784Z,100832.22
2018-01-25T20:28:54.471Z,100837.13
2018-01-25T20:31:26.393Z,100842.77
2018-01-25T20:33:57.239Z,100837.37
2018-01-25T20:36:28.250Z,100840.29
2018-01-25T20:39:03.774Z,100842.75
2018-01-25T20:41:37.189Z,100844.60
2018-01-25T20:44:09.147Z,100849.05
2018-01-25T20:46:41.200Z,100850.95
2018-01-25T20:49:12.089Z,100847.17
2018-01-25T20:51:43.164Z,100842.92
2018-01-25T20:54:14.578Z,100847.40
2018-01-25T20:56:45.801Z,100849.40
2018-01-25T20:59:17.511Z,100846.75
2018-01-25T21:01:48.799Z,100843.03
2018-01-25T21:04:20.208Z,100842.32
2018-01-25T21:06:51.276Z,100833.05
2018-01-25T21:09:23.059Z,100834.98
2018-01-25T21:11:54.091Z,100830.27
2018-01-25T21:14:25.771Z,100828.12
2018-01-25T21:16:57.966Z,100834.80
2018-01-25T21:19:29.817Z,100833.41
2018-01-25T21:22:00.846Z,100833.83
2018-01-25T21:24:32.427Z,100842.20
2018-01-25T21:27:05.666Z,100842.75
2018-01-25T21:29:37.658Z,100839.72
2018-01-25T21:32:10.553Z,100839.50
2018-01-25T21:34:42.607Z,100841.47
2018-01-25T21:37:17.259Z,100843.00
2018-01-25T21:39:48.589Z,100852.50
2018-01-25T21:42:19.936Z,100857.39
2018-01-25T21:44:51.892Z,100861.13
2018-01-25T21:47:24.606Z,100862.20
2018-01-25T21:49:56.139Z,100864.09
2018-01-25T21:52:27.841Z,100857.94
2018-01-25T21:55:22.781Z,100864.31
2018-01-25T21:57:57.236Z,100860.52
2018-01-25T22:00:28.781Z,100866.05
2018-01-25T22:02:59.994Z,100867.81
2018-01-25T22:05:30.876Z,100872.10
2018-01-25T22:08:02.823Z,100871.37
2018-01-25T22:10:34.627Z,100866.77
2018-01-25T22:13:06.447Z,100870.41
2018-01-25T22:15:38.355Z,100868.85
2018-01-25T22:18:09.177Z,100860.98
2018-01-25T22:20:45.236Z,100876.23
2018-01-25T22:23:15.958Z,100872.94
2018-01-25T22:25:46.625Z,100874.34
2018-01-25T22:28:17.771Z,100879.22
2018-01-25T22:30:48.801Z,100883.83
2018-01-25T22:33:20.570Z,100880.93
2018-01-25T22:35:51.478Z,100882.02
2018-01-25T22:38:22.285Z,100888.48
2018-01-25T22:40:53.512Z,100892.69
2018-01-25T22:43:26.026Z,100893.36
2018-01-25T22:45:58.703Z,100894.70
2018-01-25T22:48:29.734Z,100895.30
2018-01-25T22:51:00.797Z,100889.69
2018-01-25T22:53:34.012Z,100890.95
2018-01-25T22:56:06.222Z,100893.89
2018-01-25T22:58:40.844Z,100903.40
2018-01-25T23:01:14.553Z,100884.50
2018-01-25T23:03:47.387Z,100906.01
2018-01-25T23:06:21.192Z,100909.93
2018-01-25T23:08:59.268Z,100909.17
2018-01-25T23:11:30.217Z,100921.45
2018-01-25T23:14:01.207Z,100927.41
2018-01-25T23:16:32.382Z,100933.13
2018-01-25T23:19:04.075Z,100936.02
2018-01-25T23:21:35.896Z,100934.72
2018-01-25T23:24:11.031Z,100939.51
2018-01-25T23:26:42.074Z,100938.20
2018-01-25T23:29:17.135Z,100941.27
2018-01-25T23:31:48.602Z,100943.50
2018-01-25T23:34:19.562Z,100947.27
2018-01-25T23:36:51.454Z,100947.64
2018-01-25T23:39:24.734Z,100933.94
2018-01-25T23:42:00.294Z,100950.80
2018-01-25T23:44:34.529Z,100949.91
2018-01-25T23:47:13.322Z,100943.81
2018-01-25T23:49:45.605Z,100958.11
2018-01-25T23:52:16.844Z,100938.57
2018-01-25T23:54:48.477Z,100949.23
2018-01-25T23:57:19.946Z,100945.93
2018-01-25T23:59:52.044Z,100941.39
